sensor_id;sensor_type;location;lat;lon;timestamp;P1;durP1;ratioP1;P2;durP2;ratioP2
40489;SDS011;26196;52.302;10.572;2024-03-08T00:01:31;9.27;;;5.70;;
40489;SDS011;26196;52.302;10.572;2024-03-08T00:05:33;9.65;;;6.82;;
40489;SDS011;26196;52.302;10.572;2024-03-08T00:09:35;9.40;;;6.72;;
40489;SDS011;26196;52.302;10.572;2024-03-08T00:13:37;9.82;;;6.10;;
40489;SDS011;26196;52.302;10.572;2024-03-08T00:17:42;8.63;;;5.57;;
40489;SDS011;26196;52.302;10.572;2024-03-08T00:21:45;8.02;;;6.13;;
40489;SDS011;26196;52.302;10.572;2024-03-08T00:25:47;9.57;;;5.38;;
40489;SDS011;26196;52.302;10.572;2024-03-08T00:29:48;9.90;;;6.43;;
40489;SDS011;26196;52.302;10.572;2024-03-08T00:33:50;9.38;;;5.57;;
40489;SDS011;26196;52.302;10.572;2024-03-08T00:37:52;8.85;;;6.15;;
40489;SDS011;26196;52.302;10.572;2024-03-08T00:41:53;11.77;;;6.35;;
40489;SDS011;26196;52.302;10.572;2024-03-08T00:45:55;10.30;;;6.63;;
40489;SDS011;26196;52.302;10.572;2024-03-08T00:49:59;10.93;;;6.00;;
40489;SDS011;26196;52.302;10.572;2024-03-08T00:54:01;10.35;;;6.53;;
40489;SDS011;26196;52.302;10.572;2024-03-08T00:58:02;10.55;;;7.15;;
40489;SDS011;26196;52.302;10.572;2024-03-08T01:02:04;10.18;;;6.88;;
40489;SDS011;26196;52.302;10.572;2024-03-08T01:06:07;11.68;;;6.93;;
40489;SDS011;26196;52.302;10.572;2024-03-08T01:10:08;10.93;;;7.28;;
40489;SDS011;26196;52.302;10.572;2024-03-08T01:14:11;9.07;;;6.43;;
40489;SDS011;26196;52.302;10.572;2024-03-08T01:18:13;11.30;;;7.35;;
40489;SDS011;26196;52.302;10.572;2024-03-08T01:22:14;10.85;;;6.93;;
40489;SDS011;26196;52.302;10.572;2024-03-08T01:26:16;10.02;;;7.05;;
40489;SDS011;26196;52.302;10.572;2024-03-08T01:30:17;9.65;;;6.03;;
40489;SDS011;26196;52.302;10.572;2024-03-08T01:34:19;11.40;;;6.47;;
40489;SDS011;26196;52.302;10.572;2024-03-08T01:38:20;9.23;;;6.13;;
40489;SDS011;26196;52.302;10.572;2024-03-08T01:42:22;10.60;;;6.43;;
40489;SDS011;26196;52.302;10.572;2024-03-08T01:46:24;11.50;;;6.55;;
40489;SDS011;26196;52.302;10.572;2024-03-08T01:50:25;10.57;;;6.95;;
40489;SDS011;26196;52.302;10.572;2024-03-08T01:54:27;11.93;;;7.57;;
40489;SDS011;26196;52.302;10.572;2024-03-08T01:58:29;12.15;;;6.63;;
40489;SDS011;26196;52.302;10.572;2024-03-08T02:02:32;9.07;;;6.38;;
40489;SDS011;26196;52.302;10.572;2024-03-08T02:06:35;14.75;;;8.27;;
40489;SDS011;26196;52.302;10.572;2024-03-08T02:10:40;12.15;;;8.50;;
40489;SDS011;26196;52.302;10.572;2024-03-08T02:14:43;12.40;;;8.13;;
40489;SDS011;26196;52.302;10.572;2024-03-08T02:18:45;11.80;;;8.23;;
40489;SDS011;26196;52.302;10.572;2024-03-08T02:22:47;11.40;;;7.65;;
40489;SDS011;26196;52.302;10.572;2024-03-08T02:26:49;10.73;;;7.38;;
40489;SDS011;26196;52.302;10.572;2024-03-08T02:30:51;11.25;;;7.47;;
40489;SDS011;26196;52.302;10.572;2024-03-08T02:34:57;14.45;;;9.65;;
40489;SDS011;26196;52.302;10.572;2024-03-08T02:39:02;13.07;;;8.00;;
40489;SDS011;26196;52.302;10.572;2024-03-08T02:43:04;12.43;;;7.07;;
40489;SDS011;26196;52.302;10.572;2024-03-08T02:47:06;12.93;;;7.97;;
40489;SDS011;26196;52.302;10.572;2024-03-08T02:51:07;9.90;;;7.05;;
40489;SDS011;26196;52.302;10.572;2024-03-08T02:55:09;12.20;;;7.93;;
40489;SDS011;26196;52.302;10.572;2024-03-08T02:59:14;11.80;;;7.30;;
40489;SDS011;26196;52.302;10.572;2024-03-08T03:03:18;11.27;;;7.53;;
40489;SDS011;26196;52.302;10.572;2024-03-08T03:07:20;10.70;;;6.47;;
40489;SDS011;26196;52.302;10.572;2024-03-08T03:11:21;11.85;;;7.60;;
40489;SDS011;26196;52.302;10.572;2024-03-08T03:15:23;10.30;;;6.97;;
40489;SDS011;26196;52.302;10.572;2024-03-08T03:19:28;12.45;;;7.43;;
40489;SDS011;26196;52.302;10.572;2024-03-08T03:23:31;12.27;;;7.07;;
40489;SDS011;26196;52.302;10.572;2024-03-08T03:27:34;8.68;;;6.20;;
40489;SDS011;26196;52.302;10.572;2024-03-08T03:31:36;13.32;;;7.65;;
40489;SDS011;26196;52.302;10.572;2024-03-08T03:35:38;9.85;;;6.43;;
40489;SDS011;26196;52.302;10.572;2024-03-08T03:39:40;12.10;;;6.97;;
40489;SDS011;26196;52.302;10.572;2024-03-08T03:43:50;10.13;;;6.82;;
40489;SDS011;26196;52.302;10.572;2024-03-08T03:47:52;9.68;;;6.63;;
40489;SDS011;26196;52.302;10.572;2024-03-08T03:51:53;10.15;;;6.53;;
40489;SDS011;26196;52.302;10.572;2024-03-08T03:55:55;13.15;;;6.80;;
40489;SDS011;26196;52.302;10.572;2024-03-08T03:59:56;12.40;;;8.25;;
40489;SDS011;26196;52.302;10.572;2024-03-08T04:03:59;11.23;;;7.28;;
40489;SDS011;26196;52.302;10.572;2024-03-08T04:08:01;11.35;;;7.07;;
40489;SDS011;26196;52.302;10.572;2024-03-08T04:12:04;11.93;;;7.40;;
40489;SDS011;26196;52.302;10.572;2024-03-08T04:16:06;12.30;;;7.78;;
40489;SDS011;26196;52.302;10.572;2024-03-08T04:20:09;12.00;;;7.57;;
40489;SDS011;26196;52.302;10.572;2024-03-08T04:24:12;11.95;;;7.30;;
40489;SDS011;26196;52.302;10.572;2024-03-08T04:28:13;9.77;;;6.45;;
40489;SDS011;26196;52.302;10.572;2024-03-08T04:32:15;10.75;;;6.95;;
40489;SDS011;26196;52.302;10.572;2024-03-08T04:36:16;10.18;;;6.70;;
40489;SDS011;26196;52.302;10.572;2024-03-08T04:40:18;13.13;;;6.57;;
40489;SDS011;26196;52.302;10.572;2024-03-08T04:44:20;10.35;;;7.03;;
40489;SDS011;26196;52.302;10.572;2024-03-08T04:48:21;12.18;;;7.28;;
40489;SDS011;26196;52.302;10.572;2024-03-08T04:52:24;12.48;;;7.93;;
40489;SDS011;26196;52.302;10.572;2024-03-08T04:56:25;12.13;;;8.15;;
40489;SDS011;26196;52.302;10.572;2024-03-08T05:00:27;12.88;;;7.85;;
40489;SDS011;26196;52.302;10.572;2024-03-08T05:04:28;12.82;;;7.10;;
40489;SDS011;26196;52.302;10.572;2024-03-08T05:08:30;13.30;;;8.05;;
40489;SDS011;26196;52.302;10.572;2024-03-08T05:12:32;13.55;;;8.55;;
40489;SDS011;26196;52.302;10.572;2024-03-08T05:16:34;10.50;;;7.72;;
40489;SDS011;26196;52.302;10.572;2024-03-08T05:20:35;12.80;;;7.85;;
40489;SDS011;26196;52.302;10.572;2024-03-08T05:24:38;13.30;;;7.70;;
40489;SDS011;26196;52.302;10.572;2024-03-08T05:28:40;17.80;;;8.95;;
40489;SDS011;26196;52.302;10.572;2024-03-08T05:32:41;14.15;;;9.23;;
40489;SDS011;26196;52.302;10.572;2024-03-08T05:36:46;14.30;;;7.97;;
40489;SDS011;26196;52.302;10.572;2024-03-08T05:40:48;13.52;;;8.32;;
40489;SDS011;26196;52.302;10.572;2024-03-08T05:44:49;11.45;;;7.82;;
40489;SDS011;26196;52.302;10.572;2024-03-08T05:48:51;15.27;;;9.00;;
40489;SDS011;26196;52.302;10.572;2024-03-08T05:52:53;13.70;;;8.13;;
40489;SDS011;26196;52.302;10.572;2024-03-08T05:56:54;14.00;;;7.80;;
40489;SDS011;26196;52.302;10.572;2024-03-08T06:00:56;12.98;;;8.45;;
40489;SDS011;26196;52.302;10.572;2024-03-08T06:04:58;12.35;;;8.02;;
40489;SDS011;26196;52.302;10.572;2024-03-08T06:08:59;11.57;;;7.97;;
40489;SDS011;26196;52.302;10.572;2024-03-08T06:13:01;13.80;;;8.82;;
40489;SDS011;26196;52.302;10.572;2024-03-08T06:17:03;10.88;;;7.65;;
40489;SDS011;26196;52.302;10.572;2024-03-08T06:21:08;13.80;;;8.20;;
40489;SDS011;26196;52.302;10.572;2024-03-08T06:25:13;12.90;;;8.77;;
40489;SDS011;26196;52.302;10.572;2024-03-08T06:29:16;12.32;;;7.63;;
40489;SDS011;26196;52.302;10.572;2024-03-08T06:33:17;12.27;;;7.60;;
40489;SDS011;26196;52.302;10.572;2024-03-08T06:37:19;11.55;;;8.00;;
40489;SDS011;26196;52.302;10.572;2024-03-08T06:41:22;11.88;;;7.10;;
40489;SDS011;26196;52.302;10.572;2024-03-08T06:45:24;13.38;;;8.20;;
40489;SDS011;26196;52.302;10.572;2024-03-08T06:49:27;13.18;;;8.07;;
40489;SDS011;26196;52.302;10.572;2024-03-08T06:53:28;12.10;;;8.10;;
40489;SDS011;26196;52.302;10.572;2024-03-08T06:57:30;15.63;;;9.10;;
40489;SDS011;26196;52.302;10.572;2024-03-08T07:01:31;15.57;;;8.98;;
40489;SDS011;26196;52.302;10.572;2024-03-08T07:05:33;12.63;;;7.78;;
40489;SDS011;26196;52.302;10.572;2024-03-08T07:09:36;12.70;;;7.80;;
40489;SDS011;26196;52.302;10.572;2024-03-08T07:13:38;11.90;;;8.43;;
40489;SDS011;26196;52.302;10.572;2024-03-08T07:17:43;14.13;;;8.43;;
40489;SDS011;26196;52.302;10.572;2024-03-08T07:21:45;11.70;;;7.63;;
40489;SDS011;26196;52.302;10.572;2024-03-08T07:25:48;12.88;;;8.57;;
40489;SDS011;26196;52.302;10.572;2024-03-08T07:29:50;11.40;;;7.53;;
40489;SDS011;26196;52.302;10.572;2024-03-08T07:33:51;12.68;;;8.73;;
40489;SDS011;26196;52.302;10.572;2024-03-08T07:37:54;14.95;;;9.10;;
40489;SDS011;26196;52.302;10.572;2024-03-08T07:41:56;13.13;;;8.40;;
40489;SDS011;26196;52.302;10.572;2024-03-08T07:45:58;11.55;;;7.10;;
40489;SDS011;26196;52.302;10.572;2024-03-08T07:49:59;13.30;;;8.85;;
40489;SDS011;26196;52.302;10.572;2024-03-08T07:54:05;11.65;;;8.13;;
40489;SDS011;26196;52.302;10.572;2024-03-08T07:58:06;14.02;;;8.63;;
40489;SDS011;26196;52.302;10.572;2024-03-08T08:02:08;12.30;;;7.85;;
40489;SDS011;26196;52.302;10.572;2024-03-08T08:06:09;12.85;;;8.40;;
40489;SDS011;26196;52.302;10.572;2024-03-08T08:10:16;15.10;;;9.48;;
40489;SDS011;26196;52.302;10.572;2024-03-08T08:14:23;13.52;;;9.00;;
40489;SDS011;26196;52.302;10.572;2024-03-08T08:18:24;15.13;;;10.18;;
40489;SDS011;26196;52.302;10.572;2024-03-08T08:22:26;14.48;;;9.13;;
40489;SDS011;26196;52.302;10.572;2024-03-08T08:26:28;17.38;;;11.23;;
40489;SDS011;26196;52.302;10.572;2024-03-08T08:30:31;16.50;;;11.25;;
40489;SDS011;26196;52.302;10.572;2024-03-08T08:34:34;15.80;;;10.90;;
40489;SDS011;26196;52.302;10.572;2024-03-08T08:38:35;16.92;;;10.55;;
40489;SDS011;26196;52.302;10.572;2024-03-08T08:42:37;16.85;;;11.18;;
40489;SDS011;26196;52.302;10.572;2024-03-08T08:46:39;17.02;;;11.43;;
40489;SDS011;26196;52.302;10.572;2024-03-08T08:50:42;16.95;;;10.23;;
40489;SDS011;26196;52.302;10.572;2024-03-08T08:54:45;19.67;;;12.40;;
40489;SDS011;26196;52.302;10.572;2024-03-08T08:58:50;16.33;;;10.93;;
40489;SDS011;26196;52.302;10.572;2024-03-08T09:02:52;18.35;;;9.63;;
40489;SDS011;26196;52.302;10.572;2024-03-08T09:06:56;15.05;;;9.63;;
40489;SDS011;26196;52.302;10.572;2024-03-08T09:10:58;12.50;;;8.98;;
40489;SDS011;26196;52.302;10.572;2024-03-08T09:15:01;12.20;;;8.38;;
40489;SDS011;26196;52.302;10.572;2024-03-08T09:19:02;12.85;;;9.20;;
40489;SDS011;26196;52.302;10.572;2024-03-08T09:23:04;11.82;;;8.15;;
40489;SDS011;26196;52.302;10.572;2024-03-08T09:27:06;13.50;;;8.27;;
40489;SDS011;26196;52.302;10.572;2024-03-08T09:31:07;13.75;;;8.77;;
40489;SDS011;26196;52.302;10.572;2024-03-08T09:35:09;13.15;;;8.68;;
40489;SDS011;26196;52.302;10.572;2024-03-08T09:39:12;15.38;;;8.45;;
40489;SDS011;26196;52.302;10.572;2024-03-08T09:43:18;13.23;;;8.50;;
40489;SDS011;26196;52.302;10.572;2024-03-08T09:47:23;10.95;;;6.95;;
40489;SDS011;26196;52.302;10.572;2024-03-08T09:51:27;10.77;;;7.60;;
40489;SDS011;26196;52.302;10.572;2024-03-08T09:55:30;12.35;;;8.52;;
40489;SDS011;26196;52.302;10.572;2024-03-08T09:59:35;11.38;;;8.43;;
40489;SDS011;26196;52.302;10.572;2024-03-08T10:03:36;13.25;;;9.00;;
40489;SDS011;26196;52.302;10.572;2024-03-08T10:07:38;13.05;;;8.00;;
40489;SDS011;26196;52.302;10.572;2024-03-08T10:11:40;11.10;;;7.22;;
40489;SDS011;26196;52.302;10.572;2024-03-08T10:15:41;10.00;;;7.32;;
40489;SDS011;26196;52.302;10.572;2024-03-08T10:19:50;11.75;;;7.97;;
40489;SDS011;26196;52.302;10.572;2024-03-08T10:23:53;11.13;;;7.25;;
40489;SDS011;26196;52.302;10.572;2024-03-08T10:27:55;9.65;;;7.07;;
40489;SDS011;26196;52.302;10.572;2024-03-08T10:31:56;12.93;;;7.35;;
40489;SDS011;26196;52.302;10.572;2024-03-08T10:35:58;9.57;;;6.70;;
40489;SDS011;26196;52.302;10.572;2024-03-08T10:40:03;12.77;;;7.70;;
40489;SDS011;26196;52.302;10.572;2024-03-08T10:48:33;8.82;;;5.97;;
40489;SDS011;26196;52.302;10.572;2024-03-08T10:52:44;9.30;;;6.18;;
40489;SDS011;26196;52.302;10.572;2024-03-08T10:56:47;10.13;;;6.57;;
40489;SDS011;26196;52.302;10.572;2024-03-08T11:00:50;9.50;;;6.35;;
40489;SDS011;26196;52.302;10.572;2024-03-08T11:04:51;12.77;;;9.05;;
40489;SDS011;26196;52.302;10.572;2024-03-08T11:08:54;7.95;;;5.07;;
40489;SDS011;26196;52.302;10.572;2024-03-08T11:12:56;10.65;;;5.80;;
40489;SDS011;26196;52.302;10.572;2024-03-08T11:16:59;11.23;;;6.88;;
40489;SDS011;26196;52.302;10.572;2024-03-08T11:21:08;8.55;;;5.47;;
40489;SDS011;26196;52.302;10.572;2024-03-08T11:25:47;8.23;;;5.60;;
40489;SDS011;26196;52.302;10.572;2024-03-08T11:30:06;10.40;;;5.25;;
40489;SDS011;26196;52.302;10.572;2024-03-08T11:34:19;8.30;;;5.60;;
40489;SDS011;26196;52.302;10.572;2024-03-08T11:38:20;13.52;;;8.52;;
40489;SDS011;26196;52.302;10.572;2024-03-08T11:42:22;9.77;;;6.15;;
40489;SDS011;26196;52.302;10.572;2024-03-08T11:46:24;8.05;;;5.35;;
40489;SDS011;26196;52.302;10.572;2024-03-08T11:50:26;9.20;;;6.05;;
40489;SDS011;26196;52.302;10.572;2024-03-08T11:54:27;11.20;;;7.43;;
40489;SDS011;26196;52.302;10.572;2024-03-08T11:58:29;11.20;;;7.40;;
40489;SDS011;26196;52.302;10.572;2024-03-08T12:02:30;8.82;;;6.43;;
40489;SDS011;26196;52.302;10.572;2024-03-08T12:06:39;11.85;;;6.57;;
40489;SDS011;26196;52.302;10.572;2024-03-08T12:10:42;8.75;;;5.70;;
40489;SDS011;26196;52.302;10.572;2024-03-08T12:14:44;7.18;;;4.43;;
40489;SDS011;26196;52.302;10.572;2024-03-08T12:18:46;6.72;;;4.35;;
40489;SDS011;26196;52.302;10.572;2024-03-08T12:22:47;11.48;;;7.40;;
40489;SDS011;26196;52.302;10.572;2024-03-08T12:26:50;11.43;;;7.68;;
40489;SDS011;26196;52.302;10.572;2024-03-08T12:30:52;11.43;;;8.27;;
40489;SDS011;26196;52.302;10.572;2024-03-08T12:34:59;12.07;;;7.57;;
40489;SDS011;26196;52.302;10.572;2024-03-08T12:39:01;10.52;;;7.63;;
40489;SDS011;26196;52.302;10.572;2024-03-08T12:43:07;12.07;;;8.17;;
40489;SDS011;26196;52.302;10.572;2024-03-08T12:47:08;4.65;;;3.95;;
40489;SDS011;26196;52.302;10.572;2024-03-08T12:51:10;10.02;;;6.80;;
40489;SDS011;26196;52.302;10.572;2024-03-08T12:55:11;11.98;;;6.90;;
40489;SDS011;26196;52.302;10.572;2024-03-08T12:59:13;10.73;;;7.07;;
40489;SDS011;26196;52.302;10.572;2024-03-08T13:03:15;11.52;;;6.13;;
40489;SDS011;26196;52.302;10.572;2024-03-08T13:07:17;10.23;;;6.40;;
40489;SDS011;26196;52.302;10.572;2024-03-08T13:11:18;13.25;;;8.68;;
40489;SDS011;26196;52.302;10.572;2024-03-08T13:15:21;7.97;;;5.05;;
40489;SDS011;26196;52.302;10.572;2024-03-08T13:19:23;11.15;;;7.38;;
40489;SDS011;26196;52.302;10.572;2024-03-08T13:23:25;5.57;;;3.78;;
40489;SDS011;26196;52.302;10.572;2024-03-08T13:27:29;11.65;;;7.60;;
40489;SDS011;26196;52.302;10.572;2024-03-08T13:31:31;6.55;;;3.97;;
40489;SDS011;26196;52.302;10.572;2024-03-08T13:35:37;8.27;;;4.18;;
40489;SDS011;26196;52.302;10.572;2024-03-08T13:39:39;8.70;;;5.53;;
40489;SDS011;26196;52.302;10.572;2024-03-08T13:43:47;9.35;;;6.18;;
40489;SDS011;26196;52.302;10.572;2024-03-08T13:47:55;8.25;;;5.30;;
40489;SDS011;26196;52.302;10.572;2024-03-08T13:51:57;10.27;;;6.10;;
40489;SDS011;26196;52.302;10.572;2024-03-08T13:56:01;9.07;;;4.82;;
40489;SDS011;26196;52.302;10.572;2024-03-08T14:00:04;6.18;;;3.90;;
40489;SDS011;26196;52.302;10.572;2024-03-08T14:04:08;8.13;;;5.00;;
40489;SDS011;26196;52.302;10.572;2024-03-08T14:08:10;6.57;;;4.20;;
40489;SDS011;26196;52.302;10.572;2024-03-08T14:12:13;5.68;;;4.22;;
40489;SDS011;26196;52.302;10.572;2024-03-08T14:16:15;7.07;;;4.07;;
40489;SDS011;26196;52.302;10.572;2024-03-08T14:20:17;9.40;;;6.15;;
40489;SDS011;26196;52.302;10.572;2024-03-08T14:24:19;10.27;;;5.93;;
40489;SDS011;26196;52.302;10.572;2024-03-08T14:28:21;7.13;;;5.10;;
40489;SDS011;26196;52.302;10.572;2024-03-08T14:32:24;9.75;;;5.72;;
40489;SDS011;26196;52.302;10.572;2024-03-08T14:36:25;8.45;;;5.63;;
40489;SDS011;26196;52.302;10.572;2024-03-08T14:40:27;9.77;;;5.75;;
40489;SDS011;26196;52.302;10.572;2024-03-08T14:44:29;6.82;;;4.55;;
40489;SDS011;26196;52.302;10.572;2024-03-08T14:48:31;5.28;;;3.67;;
40489;SDS011;26196;52.302;10.572;2024-03-08T14:52:32;8.02;;;4.15;;
40489;SDS011;26196;52.302;10.572;2024-03-08T14:56:37;7.55;;;5.55;;
40489;SDS011;26196;52.302;10.572;2024-03-08T15:00:38;4.40;;;3.17;;
40489;SDS011;26196;52.302;10.572;2024-03-08T15:04:45;9.88;;;5.57;;
40489;SDS011;26196;52.302;10.572;2024-03-08T15:08:54;7.70;;;5.35;;
40489;SDS011;26196;52.302;10.572;2024-03-08T15:12:57;6.32;;;4.30;;
40489;SDS011;26196;52.302;10.572;2024-03-08T15:17:00;7.95;;;4.82;;
40489;SDS011;26196;52.302;10.572;2024-03-08T15:21:08;9.45;;;5.45;;
40489;SDS011;26196;52.302;10.572;2024-03-08T15:25:10;11.00;;;4.50;;
40489;SDS011;26196;52.302;10.572;2024-03-08T15:29:16;9.93;;;5.60;;
40489;SDS011;26196;52.302;10.572;2024-03-08T15:33:25;8.13;;;5.47;;
40489;SDS011;26196;52.302;10.572;2024-03-08T15:37:28;10.50;;;4.68;;
40489;SDS011;26196;52.302;10.572;2024-03-08T15:41:31;8.73;;;5.85;;
40489;SDS011;26196;52.302;10.572;2024-03-08T15:45:32;7.00;;;4.90;;
40489;SDS011;26196;52.302;10.572;2024-03-08T15:49:34;7.43;;;4.63;;
40489;SDS011;26196;52.302;10.572;2024-03-08T15:53:36;10.48;;;5.43;;
40489;SDS011;26196;52.302;10.572;2024-03-08T15:57:38;8.57;;;5.80;;
40489;SDS011;26196;52.302;10.572;2024-03-08T16:01:40;9.68;;;6.00;;
40489;SDS011;26196;52.302;10.572;2024-03-08T16:05:42;8.77;;;5.07;;
40489;SDS011;26196;52.302;10.572;2024-03-08T16:09:47;8.15;;;4.75;;
40489;SDS011;26196;52.302;10.572;2024-03-08T16:13:49;10.90;;;6.30;;
40489;SDS011;26196;52.302;10.572;2024-03-08T16:17:51;8.30;;;5.15;;
40489;SDS011;26196;52.302;10.572;2024-03-08T16:21:53;8.65;;;5.63;;
40489;SDS011;26196;52.302;10.572;2024-03-08T16:25:54;7.68;;;4.60;;
40489;SDS011;26196;52.302;10.572;2024-03-08T16:29:56;8.75;;;5.47;;
40489;SDS011;26196;52.302;10.572;2024-03-08T16:33:58;9.43;;;5.65;;
40489;SDS011;26196;52.302;10.572;2024-03-08T16:37:59;10.65;;;5.00;;
40489;SDS011;26196;52.302;10.572;2024-03-08T16:42:01;9.02;;;6.00;;
40489;SDS011;26196;52.302;10.572;2024-03-08T16:46:06;7.10;;;4.70;;
40489;SDS011;26196;52.302;10.572;2024-03-08T16:50:08;8.27;;;4.75;;
40489;SDS011;26196;52.302;10.572;2024-03-08T16:54:10;10.02;;;5.55;;
40489;SDS011;26196;52.302;10.572;2024-03-08T16:58:13;9.32;;;5.38;;
40489;SDS011;26196;52.302;10.572;2024-03-08T17:02:16;9.35;;;5.13;;
40489;SDS011;26196;52.302;10.572;2024-03-08T17:06:18;7.55;;;5.47;;
40489;SDS011;26196;52.302;10.572;2024-03-08T17:10:22;8.48;;;5.00;;
40489;SDS011;26196;52.302;10.572;2024-03-08T17:14:25;8.50;;;5.70;;
40489;SDS011;26196;52.302;10.572;2024-03-08T17:18:29;7.57;;;5.30;;
40489;SDS011;26196;52.302;10.572;2024-03-08T17:22:30;8.07;;;5.55;;
40489;SDS011;26196;52.302;10.572;2024-03-08T17:26:32;7.85;;;5.43;;
40489;SDS011;26196;52.302;10.572;2024-03-08T17:30:34;8.35;;;5.03;;
40489;SDS011;26196;52.302;10.572;2024-03-08T17:34:39;7.60;;;5.45;;
40489;SDS011;26196;52.302;10.572;2024-03-08T17:38:42;7.70;;;4.35;;
40489;SDS011;26196;52.302;10.572;2024-03-08T17:42:50;7.65;;;4.90;;
40489;SDS011;26196;52.302;10.572;2024-03-08T17:46:53;9.57;;;5.88;;
40489;SDS011;26196;52.302;10.572;2024-03-08T17:50:55;8.60;;;4.75;;
40489;SDS011;26196;52.302;10.572;2024-03-08T17:54:56;8.82;;;5.35;;
40489;SDS011;26196;52.302;10.572;2024-03-08T17:58:58;7.32;;;4.72;;
40489;SDS011;26196;52.302;10.572;2024-03-08T18:02:59;9.40;;;5.05;;
40489;SDS011;26196;52.302;10.572;2024-03-08T18:07:02;7.28;;;5.22;;
40489;SDS011;26196;52.302;10.572;2024-03-08T18:11:04;7.90;;;4.95;;
40489;SDS011;26196;52.302;10.572;2024-03-08T18:15:05;8.23;;;4.90;;
40489;SDS011;26196;52.302;10.572;2024-03-08T18:19:07;7.50;;;4.68;;
40489;SDS011;26196;52.302;10.572;2024-03-08T18:23:09;7.10;;;4.70;;
40489;SDS011;26196;52.302;10.572;2024-03-08T18:27:11;7.68;;;4.85;;
40489;SDS011;26196;52.302;10.572;2024-03-08T18:31:13;7.35;;;4.78;;
40489;SDS011;26196;52.302;10.572;2024-03-08T18:35:15;7.00;;;5.18;;
40489;SDS011;26196;52.302;10.572;2024-03-08T18:39:20;7.78;;;4.88;;
40489;SDS011;26196;52.302;10.572;2024-03-08T18:43:28;7.85;;;4.55;;
40489;SDS011;26196;52.302;10.572;2024-03-08T18:47:30;8.57;;;5.90;;
40489;SDS011;26196;52.302;10.572;2024-03-08T18:51:32;9.90;;;5.47;;
40489;SDS011;26196;52.302;10.572;2024-03-08T18:55:33;7.00;;;4.18;;
40489;SDS011;26196;52.302;10.572;2024-03-08T18:59:36;8.82;;;5.80;;
40489;SDS011;26196;52.302;10.572;2024-03-08T19:03:41;11.57;;;5.88;;
40489;SDS011;26196;52.302;10.572;2024-03-08T19:07:50;8.63;;;5.82;;
40489;SDS011;26196;52.302;10.572;2024-03-08T19:11:52;8.65;;;5.28;;
40489;SDS011;26196;52.302;10.572;2024-03-08T19:15:57;7.30;;;4.68;;
40489;SDS011;26196;52.302;10.572;2024-03-08T19:19:59;6.60;;;4.80;;
40489;SDS011;26196;52.302;10.572;2024-03-08T19:24:01;9.88;;;4.70;;
40489;SDS011;26196;52.302;10.572;2024-03-08T19:28:04;7.90;;;5.28;;
40489;SDS011;26196;52.302;10.572;2024-03-08T19:32:07;6.88;;;4.32;;
40489;SDS011;26196;52.302;10.572;2024-03-08T19:36:12;8.85;;;4.45;;
40489;SDS011;26196;52.302;10.572;2024-03-08T19:40:19;6.18;;;4.07;;
40489;SDS011;26196;52.302;10.572;2024-03-08T19:44:21;10.52;;;4.95;;
40489;SDS011;26196;52.302;10.572;2024-03-08T19:48:22;7.53;;;4.38;;
40489;SDS011;26196;52.302;10.572;2024-03-08T19:52:25;7.68;;;4.53;;
40489;SDS011;26196;52.302;10.572;2024-03-08T19:56:27;8.48;;;4.63;;
40489;SDS011;26196;52.302;10.572;2024-03-08T20:00:28;7.28;;;4.63;;
40489;SDS011;26196;52.302;10.572;2024-03-08T20:04:30;8.60;;;5.13;;
40489;SDS011;26196;52.302;10.572;2024-03-08T20:08:32;6.90;;;4.55;;
40489;SDS011;26196;52.302;10.572;2024-03-08T20:12:35;7.45;;;4.15;;
40489;SDS011;26196;52.302;10.572;2024-03-08T20:16:39;8.57;;;5.10;;
40489;SDS011;26196;52.302;10.572;2024-03-08T20:20:40;7.20;;;4.03;;
40489;SDS011;26196;52.302;10.572;2024-03-08T20:24:49;8.00;;;4.93;;
40489;SDS011;26196;52.302;10.572;2024-03-08T20:28:51;7.40;;;5.20;;
40489;SDS011;26196;52.302;10.572;2024-03-08T20:32:53;7.80;;;5.30;;
40489;SDS011;26196;52.302;10.572;2024-03-08T20:37:00;8.52;;;4.68;;
40489;SDS011;26196;52.302;10.572;2024-03-08T20:41:03;7.88;;;4.68;;
40489;SDS011;26196;52.302;10.572;2024-03-08T20:45:09;9.88;;;5.10;;
40489;SDS011;26196;52.302;10.572;2024-03-08T20:49:11;8.10;;;4.95;;
40489;SDS011;26196;52.302;10.572;2024-03-08T20:53:14;7.88;;;5.10;;
40489;SDS011;26196;52.302;10.572;2024-03-08T20:57:16;8.15;;;5.15;;
40489;SDS011;26196;52.302;10.572;2024-03-08T21:01:18;8.05;;;5.20;;
40489;SDS011;26196;52.302;10.572;2024-03-08T21:05:20;9.02;;;5.10;;
40489;SDS011;26196;52.302;10.572;2024-03-08T21:09:23;7.80;;;5.47;;
40489;SDS011;26196;52.302;10.572;2024-03-08T21:13:24;8.23;;;5.43;;
40489;SDS011;26196;52.302;10.572;2024-03-08T21:17:28;9.90;;;5.60;;
40489;SDS011;26196;52.302;10.572;2024-03-08T21:21:29;9.38;;;5.78;;
40489;SDS011;26196;52.302;10.572;2024-03-08T21:25:31;10.75;;;5.70;;
40489;SDS011;26196;52.302;10.572;2024-03-08T21:29:32;11.50;;;6.82;;
40489;SDS011;26196;52.302;10.572;2024-03-08T21:33:34;8.65;;;6.20;;
40489;SDS011;26196;52.302;10.572;2024-03-08T21:37:37;8.63;;;5.90;;
40489;SDS011;26196;52.302;10.572;2024-03-08T21:41:39;9.05;;;6.30;;
40489;SDS011;26196;52.302;10.572;2024-03-08T21:45:41;11.23;;;6.60;;
40489;SDS011;26196;52.302;10.572;2024-03-08T21:49:46;9.25;;;6.60;;
40489;SDS011;26196;52.302;10.572;2024-03-08T21:53:52;11.10;;;7.07;;
40489;SDS011;26196;52.302;10.572;2024-03-08T21:57:54;11.73;;;6.85;;
40489;SDS011;26196;52.302;10.572;2024-03-08T22:01:55;10.95;;;6.10;;
40489;SDS011;26196;52.302;10.572;2024-03-08T22:05:57;10.88;;;7.13;;
40489;SDS011;26196;52.302;10.572;2024-03-08T22:09:58;12.63;;;7.25;;
40489;SDS011;26196;52.302;10.572;2024-03-08T22:14:00;9.65;;;7.00;;
40489;SDS011;26196;52.302;10.572;2024-03-08T22:18:02;11.15;;;7.10;;
40489;SDS011;26196;52.302;10.572;2024-03-08T22:22:04;12.38;;;7.75;;
40489;SDS011;26196;52.302;10.572;2024-03-08T22:26:06;15.32;;;8.80;;
40489;SDS011;26196;52.302;10.572;2024-03-08T22:30:10;11.50;;;8.13;;
40489;SDS011;26196;52.302;10.572;2024-03-08T22:34:16;14.57;;;8.50;;
40489;SDS011;26196;52.302;10.572;2024-03-08T22:38:18;9.55;;;7.18;;
40489;SDS011;26196;52.302;10.572;2024-03-08T22:42:19;12.77;;;8.60;;
40489;SDS011;26196;52.302;10.572;2024-03-08T22:46:21;11.95;;;7.45;;
40489;SDS011;26196;52.302;10.572;2024-03-08T22:50:22;12.52;;;8.68;;
40489;SDS011;26196;52.302;10.572;2024-03-08T22:54:26;11.52;;;7.38;;
40489;SDS011;26196;52.302;10.572;2024-03-08T22:58:27;10.00;;;7.45;;
40489;SDS011;26196;52.302;10.572;2024-03-08T23:02:30;13.88;;;8.70;;
40489;SDS011;26196;52.302;10.572;2024-03-08T23:06:33;12.57;;;7.95;;
40489;SDS011;26196;52.302;10.572;2024-03-08T23:10:37;11.57;;;8.20;;
40489;SDS011;26196;52.302;10.572;2024-03-08T23:14:40;16.25;;;7.72;;
40489;SDS011;26196;52.302;10.572;2024-03-08T23:18:43;12.45;;;8.82;;
40489;SDS011;26196;52.302;10.572;2024-03-08T23:22:48;15.20;;;9.50;;
40489;SDS011;26196;52.302;10.572;2024-03-08T23:26:51;14.40;;;8.57;;
40489;SDS011;26196;52.302;10.572;2024-03-08T23:30:53;11.77;;;8.35;;
40489;SDS011;26196;52.302;10.572;2024-03-08T23:34:56;12.57;;;8.30;;
40489;SDS011;26196;52.302;10.572;2024-03-08T23:38:57;15.48;;;10.02;;
40489;SDS011;26196;52.302;10.572;2024-03-08T23:42:59;14.73;;;9.27;;
40489;SDS011;26196;52.302;10.572;2024-03-08T23:47:01;13.00;;;8.80;;
40489;SDS011;26196;52.302;10.572;2024-03-08T23:51:06;15.17;;;9.33;;